sensor_id;sensor_type;location;lat;lon;timestamp;P1;durP1;ratioP1;P2;durP2;ratioP2
12459;SDS011;6295;49.452;8.466;2022-07-23T00:02:15;9.40;;;8.60;;
12459;SDS011;6295;49.452;8.466;2022-07-23T00:06:17;9.87;;;8.53;;
12459;SDS011;6295;49.452;8.466;2022-07-23T00:10:20;9.40;;;8.50;;
12459;SDS011;6295;49.452;8.466;2022-07-23T00:14:22;9.20;;;8.40;;
12459;SDS011;6295;49.452;8.466;2022-07-23T00:18:26;12.00;;;8.77;;
12459;SDS011;6295;49.452;8.466;2022-07-23T00:22:28;9.20;;;8.30;;
12459;SDS011;6295;49.452;8.466;2022-07-23T00:26:30;8.93;;;8.13;;
12459;SDS011;6295;49.452;8.466;2022-07-23T00:30:33;9.27;;;8.30;;
12459;SDS011;6295;49.452;8.466;2022-07-23T00:34:36;8.93;;;7.93;;
12459;SDS011;6295;49.452;8.466;2022-07-23T00:38:38;9.27;;;8.07;;
12459;SDS011;6295;49.452;8.466;2022-07-23T00:42:41;8.60;;;7.80;;
12459;SDS011;6295;49.452;8.466;2022-07-23T00:46:45;8.70;;;7.90;;
12459;SDS011;6295;49.452;8.466;2022-07-23T00:50:49;8.70;;;7.90;;
12459;SDS011;6295;49.452;8.466;2022-07-23T00:54:51;9.30;;;8.13;;
12459;SDS011;6295;49.452;8.466;2022-07-23T00:58:53;8.80;;;7.77;;
12459;SDS011;6295;49.452;8.466;2022-07-23T01:02:56;9.80;;;8.23;;
12459;SDS011;6295;49.452;8.466;2022-07-23T01:07:00;8.90;;;8.10;;
12459;SDS011;6295;49.452;8.466;2022-07-23T01:11:02;8.80;;;7.90;;
12459;SDS011;6295;49.452;8.466;2022-07-23T01:15:05;8.43;;;7.70;;
12459;SDS011;6295;49.452;8.466;2022-07-23T01:19:08;8.80;;;7.90;;
12459;SDS011;6295;49.452;8.466;2022-07-23T01:23:12;9.53;;;7.90;;
12459;SDS011;6295;49.452;8.466;2022-07-23T01:27:14;8.40;;;7.50;;
12459;SDS011;6295;49.452;8.466;2022-07-23T01:31:17;9.17;;;7.67;;
12459;SDS011;6295;49.452;8.466;2022-07-23T01:35:20;9.17;;;8.13;;
12459;SDS011;6295;49.452;8.466;2022-07-23T01:39:24;8.60;;;7.53;;
12459;SDS011;6295;49.452;8.466;2022-07-23T01:43:26;8.80;;;7.90;;
12459;SDS011;6295;49.452;8.466;2022-07-23T01:47:28;9.40;;;8.30;;
12459;SDS011;6295;49.452;8.466;2022-07-23T01:51:30;8.63;;;7.77;;
12459;SDS011;6295;49.452;8.466;2022-07-23T01:55:34;8.33;;;7.63;;
12459;SDS011;6295;49.452;8.466;2022-07-23T01:59:36;8.50;;;7.70;;
12459;SDS011;6295;49.452;8.466;2022-07-23T02:03:39;8.47;;;7.63;;
12459;SDS011;6295;49.452;8.466;2022-07-23T02:07:41;8.90;;;8.10;;
12459;SDS011;6295;49.452;8.466;2022-07-23T02:11:45;8.63;;;7.83;;
12459;SDS011;6295;49.452;8.466;2022-07-23T02:15:48;9.07;;;8.20;;
12459;SDS011;6295;49.452;8.466;2022-07-23T02:19:50;8.67;;;7.60;;
12459;SDS011;6295;49.452;8.466;2022-07-23T02:23:52;8.40;;;7.60;;
12459;SDS011;6295;49.452;8.466;2022-07-23T02:27:56;9.77;;;7.77;;
12459;SDS011;6295;49.452;8.466;2022-07-23T02:31:58;9.13;;;8.13;;
12459;SDS011;6295;49.452;8.466;2022-07-23T02:36:00;8.73;;;7.90;;
12459;SDS011;6295;49.452;8.466;2022-07-23T02:40:03;9.13;;;8.10;;
12459;SDS011;6295;49.452;8.466;2022-07-23T02:44:07;8.77;;;7.97;;
12459;SDS011;6295;49.452;8.466;2022-07-23T02:48:09;9.20;;;8.27;;
12459;SDS011;6295;49.452;8.466;2022-07-23T02:52:12;9.27;;;8.30;;
12459;SDS011;6295;49.452;8.466;2022-07-23T02:56:15;9.30;;;8.40;;
12459;SDS011;6295;49.452;8.466;2022-07-23T03:00:18;9.13;;;8.33;;
12459;SDS011;6295;49.452;8.466;2022-07-23T03:04:20;11.77;;;8.73;;
12459;SDS011;6295;49.452;8.466;2022-07-23T03:08:22;9.47;;;8.57;;
12459;SDS011;6295;49.452;8.466;2022-07-23T03:12:25;9.10;;;8.20;;
12459;SDS011;6295;49.452;8.466;2022-07-23T03:16:28;9.50;;;8.60;;
12459;SDS011;6295;49.452;8.466;2022-07-23T03:20:30;9.63;;;8.73;;
12459;SDS011;6295;49.452;8.466;2022-07-23T03:24:33;8.67;;;7.77;;
12459;SDS011;6295;49.452;8.466;2022-07-23T03:28:52;9.23;;;8.43;;
12459;SDS011;6295;49.452;8.466;2022-07-23T03:32:56;8.40;;;7.50;;
12459;SDS011;6295;49.452;8.466;2022-07-23T03:36:58;9.43;;;8.63;;
12459;SDS011;6295;49.452;8.466;2022-07-23T03:41:00;10.07;;;9.07;;
12459;SDS011;6295;49.452;8.466;2022-07-23T03:45:03;8.90;;;8.10;;
12459;SDS011;6295;49.452;8.466;2022-07-23T03:49:07;10.00;;;8.47;;
12459;SDS011;6295;49.452;8.466;2022-07-23T03:53:09;9.27;;;8.30;;
12459;SDS011;6295;49.452;8.466;2022-07-23T03:57:12;9.80;;;9.00;;
12459;SDS011;6295;49.452;8.466;2022-07-23T04:01:14;9.50;;;8.50;;
12459;SDS011;6295;49.452;8.466;2022-07-23T04:05:17;10.63;;;9.23;;
12459;SDS011;6295;49.452;8.466;2022-07-23T04:09:20;11.30;;;9.43;;
12459;SDS011;6295;49.452;8.466;2022-07-23T04:13:22;10.77;;;9.77;;
12459;SDS011;6295;49.452;8.466;2022-07-23T04:17:24;11.07;;;9.67;;
12459;SDS011;6295;49.452;8.466;2022-07-23T04:21:28;11.20;;;9.53;;
12459;SDS011;6295;49.452;8.466;2022-07-23T04:25:30;10.67;;;9.43;;
12459;SDS011;6295;49.452;8.466;2022-07-23T04:29:32;10.90;;;9.90;;
12459;SDS011;6295;49.452;8.466;2022-07-23T04:33:34;10.60;;;9.70;;
12459;SDS011;6295;49.452;8.466;2022-07-23T04:37:38;11.17;;;10.00;;
12459;SDS011;6295;49.452;8.466;2022-07-23T04:41:40;10.50;;;9.50;;
12459;SDS011;6295;49.452;8.466;2022-07-23T04:45:42;11.50;;;10.17;;
12459;SDS011;6295;49.452;8.466;2022-07-23T04:49:45;10.77;;;9.67;;
12459;SDS011;6295;49.452;8.466;2022-07-23T04:53:48;11.93;;;10.73;;
12459;SDS011;6295;49.452;8.466;2022-07-23T04:57:51;11.73;;;10.63;;
12459;SDS011;6295;49.452;8.466;2022-07-23T05:01:53;11.70;;;10.57;;
12459;SDS011;6295;49.452;8.466;2022-07-23T05:05:56;13.30;;;11.17;;
12459;SDS011;6295;49.452;8.466;2022-07-23T05:09:59;12.17;;;11.00;;
12459;SDS011;6295;49.452;8.466;2022-07-23T05:14:02;12.60;;;11.30;;
12459;SDS011;6295;49.452;8.466;2022-07-23T05:18:04;12.20;;;11.10;;
12459;SDS011;6295;49.452;8.466;2022-07-23T05:22:06;12.03;;;10.83;;
12459;SDS011;6295;49.452;8.466;2022-07-23T05:26:09;11.53;;;10.37;;
12459;SDS011;6295;49.452;8.466;2022-07-23T05:30:12;11.93;;;10.73;;
12459;SDS011;6295;49.452;8.466;2022-07-23T05:34:14;12.33;;;11.13;;
12459;SDS011;6295;49.452;8.466;2022-07-23T05:38:17;12.20;;;11.10;;
12459;SDS011;6295;49.452;8.466;2022-07-23T05:42:20;13.27;;;11.90;;
12459;SDS011;6295;49.452;8.466;2022-07-23T05:46:22;12.63;;;11.43;;
12459;SDS011;6295;49.452;8.466;2022-07-23T05:50:24;13.57;;;12.27;;
12459;SDS011;6295;49.452;8.466;2022-07-23T05:54:27;12.27;;;11.17;;
12459;SDS011;6295;49.452;8.466;2022-07-23T05:58:30;12.93;;;11.63;;
12459;SDS011;6295;49.452;8.466;2022-07-23T06:02:33;13.67;;;12.27;;
12459;SDS011;6295;49.452;8.466;2022-07-23T06:06:35;15.47;;;13.90;;
12459;SDS011;6295;49.452;8.466;2022-07-23T06:10:37;15.07;;;13.50;;
12459;SDS011;6295;49.452;8.466;2022-07-23T06:14:41;15.33;;;13.67;;
12459;SDS011;6295;49.452;8.466;2022-07-23T06:18:43;14.40;;;13.00;;
12459;SDS011;6295;49.452;8.466;2022-07-23T06:22:45;14.00;;;12.70;;
12459;SDS011;6295;49.452;8.466;2022-07-23T06:26:47;14.17;;;12.80;;
12459;SDS011;6295;49.452;8.466;2022-07-23T06:30:51;15.23;;;13.63;;
12459;SDS011;6295;49.452;8.466;2022-07-23T06:34:53;13.77;;;12.47;;
12459;SDS011;6295;49.452;8.466;2022-07-23T06:38:55;15.67;;;13.90;;
12459;SDS011;6295;49.452;8.466;2022-07-23T06:42:58;14.47;;;13.10;;
12459;SDS011;6295;49.452;8.466;2022-07-23T06:47:01;13.67;;;12.37;;
12459;SDS011;6295;49.452;8.466;2022-07-23T06:51:04;12.67;;;11.37;;
12459;SDS011;6295;49.452;8.466;2022-07-23T06:55:07;12.47;;;11.27;;
12459;SDS011;6295;49.452;8.466;2022-07-23T06:59:10;12.83;;;11.63;;
12459;SDS011;6295;49.452;8.466;2022-07-23T07:03:14;13.47;;;12.10;;
12459;SDS011;6295;49.452;8.466;2022-07-23T07:07:17;13.57;;;12.30;;
12459;SDS011;6295;49.452;8.466;2022-07-23T07:11:20;14.17;;;12.87;;
12459;SDS011;6295;49.452;8.466;2022-07-23T07:15:23;13.27;;;11.97;;
12459;SDS011;6295;49.452;8.466;2022-07-23T07:19:27;13.60;;;12.20;;
12459;SDS011;6295;49.452;8.466;2022-07-23T07:23:29;13.20;;;11.90;;
12459;SDS011;6295;49.452;8.466;2022-07-23T07:27:31;13.37;;;12.07;;
12459;SDS011;6295;49.452;8.466;2022-07-23T07:31:34;12.67;;;11.57;;
12459;SDS011;6295;49.452;8.466;2022-07-23T07:35:38;10.63;;;9.73;;
12459;SDS011;6295;49.452;8.466;2022-07-23T07:39:40;11.63;;;10.57;;
12459;SDS011;6295;49.452;8.466;2022-07-23T07:43:42;11.00;;;10.07;;
12459;SDS011;6295;49.452;8.466;2022-07-23T07:47:45;10.93;;;9.93;;
12459;SDS011;6295;49.452;8.466;2022-07-23T07:51:48;13.83;;;12.33;;
12459;SDS011;6295;49.452;8.466;2022-07-23T07:55:51;12.07;;;10.93;;
12459;SDS011;6295;49.452;8.466;2022-07-23T07:59:53;12.23;;;11.03;;
12459;SDS011;6295;49.452;8.466;2022-07-23T08:03:55;13.57;;;12.27;;
12459;SDS011;6295;49.452;8.466;2022-07-23T08:07:59;12.73;;;11.63;;
12459;SDS011;6295;49.452;8.466;2022-07-23T08:12:01;14.57;;;13.07;;
12459;SDS011;6295;49.452;8.466;2022-07-23T08:16:04;13.57;;;12.27;;
12459;SDS011;6295;49.452;8.466;2022-07-23T08:20:06;13.77;;;12.57;;
12459;SDS011;6295;49.452;8.466;2022-07-23T08:24:11;15.13;;;12.50;;
12459;SDS011;6295;49.452;8.466;2022-07-23T08:28:13;13.60;;;12.23;;
12459;SDS011;6295;49.452;8.466;2022-07-23T08:32:16;10.60;;;9.70;;
12459;SDS011;6295;49.452;8.466;2022-07-23T08:36:18;12.07;;;10.97;;
12459;SDS011;6295;49.452;8.466;2022-07-23T08:40:22;10.77;;;9.77;;
12459;SDS011;6295;49.452;8.466;2022-07-23T08:44:24;10.63;;;9.73;;
12459;SDS011;6295;49.452;8.466;2022-07-23T08:48:27;12.70;;;11.50;;
12459;SDS011;6295;49.452;8.466;2022-07-23T08:52:31;10.97;;;9.97;;
12459;SDS011;6295;49.452;8.466;2022-07-23T08:56:35;10.50;;;9.60;;
12459;SDS011;6295;49.452;8.466;2022-07-23T09:00:37;10.40;;;9.50;;
12459;SDS011;6295;49.452;8.466;2022-07-23T09:04:41;11.33;;;10.23;;
12459;SDS011;6295;49.452;8.466;2022-07-23T09:08:43;13.97;;;12.67;;
12459;SDS011;6295;49.452;8.466;2022-07-23T09:12:47;13.67;;;12.33;;
12459;SDS011;6295;49.452;8.466;2022-07-23T09:16:50;14.40;;;13.10;;
12459;SDS011;6295;49.452;8.466;2022-07-23T09:20:54;11.63;;;10.63;;
12459;SDS011;6295;49.452;8.466;2022-07-23T09:25:17;13.33;;;12.03;;
12459;SDS011;6295;49.452;8.466;2022-07-23T09:29:22;14.27;;;12.87;;
12459;SDS011;6295;49.452;8.466;2022-07-23T09:33:27;11.97;;;10.87;;
12459;SDS011;6295;49.452;8.466;2022-07-23T09:37:30;13.83;;;12.53;;
12459;SDS011;6295;49.452;8.466;2022-07-23T09:41:33;10.80;;;9.90;;
12459;SDS011;6295;49.452;8.466;2022-07-23T09:45:40;10.50;;;9.60;;
12459;SDS011;6295;49.452;8.466;2022-07-23T09:49:44;12.27;;;11.17;;
12459;SDS011;6295;49.452;8.466;2022-07-23T09:53:59;13.40;;;12.20;;
12459;SDS011;6295;49.452;8.466;2022-07-23T09:58:02;12.13;;;11.03;;
12459;SDS011;6295;49.452;8.466;2022-07-23T10:02:06;11.30;;;10.33;;
12459;SDS011;6295;49.452;8.466;2022-07-23T10:06:10;15.03;;;13.63;;
12459;SDS011;6295;49.452;8.466;2022-07-23T10:10:14;13.30;;;12.10;;
12459;SDS011;6295;49.452;8.466;2022-07-23T10:14:16;12.93;;;11.67;;
12459;SDS011;6295;49.452;8.466;2022-07-23T10:18:21;13.93;;;12.70;;
12459;SDS011;6295;49.452;8.466;2022-07-23T10:22:24;12.83;;;11.53;;
12459;SDS011;6295;49.452;8.466;2022-07-23T10:26:30;13.17;;;11.87;;
12459;SDS011;6295;49.452;8.466;2022-07-23T10:30:40;15.27;;;13.87;;
12459;SDS011;6295;49.452;8.466;2022-07-23T10:34:48;13.30;;;12.07;;
12459;SDS011;6295;49.452;8.466;2022-07-23T10:38:56;13.27;;;11.97;;
12459;SDS011;6295;49.452;8.466;2022-07-23T10:43:05;14.73;;;13.33;;
12459;SDS011;6295;49.452;8.466;2022-07-23T10:47:21;14.50;;;13.20;;
12459;SDS011;6295;49.452;8.466;2022-07-23T10:51:41;15.00;;;13.70;;
12459;SDS011;6295;49.452;8.466;2022-07-23T10:56:04;14.30;;;12.90;;
12459;SDS011;6295;49.452;8.466;2022-07-23T11:00:13;13.20;;;11.87;;
12459;SDS011;6295;49.452;8.466;2022-07-23T11:09:05;12.40;;;11.30;;
12459;SDS011;6295;49.452;8.466;2022-07-23T11:13:25;13.00;;;11.73;;
12459;SDS011;6295;49.452;8.466;2022-07-23T11:17:32;13.50;;;12.20;;
12459;SDS011;6295;49.452;8.466;2022-07-23T11:21:45;15.70;;;14.10;;
12459;SDS011;6295;49.452;8.466;2022-07-23T11:25:53;15.83;;;14.33;;
12459;SDS011;6295;49.452;8.466;2022-07-23T11:29:56;15.93;;;14.43;;
12459;SDS011;6295;49.452;8.466;2022-07-23T11:38:32;14.93;;;13.63;;
12459;SDS011;6295;49.452;8.466;2022-07-23T11:42:39;12.47;;;11.37;;
12459;SDS011;6295;49.452;8.466;2022-07-23T11:46:55;13.03;;;11.83;;
12459;SDS011;6295;49.452;8.466;2022-07-23T11:50:59;13.03;;;11.80;;
12459;SDS011;6295;49.452;8.466;2022-07-23T11:55:03;12.73;;;11.63;;
12459;SDS011;6295;49.452;8.466;2022-07-23T11:59:09;12.97;;;11.87;;
12459;SDS011;6295;49.452;8.466;2022-07-23T12:03:13;13.60;;;12.30;;
12459;SDS011;6295;49.452;8.466;2022-07-23T12:07:25;12.67;;;11.57;;
12459;SDS011;6295;49.452;8.466;2022-07-23T12:11:31;12.47;;;11.43;;
12459;SDS011;6295;49.452;8.466;2022-07-23T12:15:37;12.63;;;11.43;;
12459;SDS011;6295;49.452;8.466;2022-07-23T12:19:43;11.87;;;10.87;;
12459;SDS011;6295;49.452;8.466;2022-07-23T12:23:48;12.10;;;10.90;;
12459;SDS011;6295;49.452;8.466;2022-07-23T12:28:02;12.43;;;11.23;;
12459;SDS011;6295;49.452;8.466;2022-07-23T12:32:18;13.90;;;12.37;;
12459;SDS011;6295;49.452;8.466;2022-07-23T12:36:21;16.73;;;14.47;;
12459;SDS011;6295;49.452;8.466;2022-07-23T12:40:41;15.40;;;14.00;;
12459;SDS011;6295;49.452;8.466;2022-07-23T12:49:12;15.53;;;14.07;;
12459;SDS011;6295;49.452;8.466;2022-07-23T12:53:28;15.60;;;14.20;;
12459;SDS011;6295;49.452;8.466;2022-07-23T12:57:45;16.00;;;14.50;;
12459;SDS011;6295;49.452;8.466;2022-07-23T13:01:53;14.00;;;12.80;;
12459;SDS011;6295;49.452;8.466;2022-07-23T13:05:59;14.37;;;13.17;;
12459;SDS011;6295;49.452;8.466;2022-07-23T13:10:02;14.47;;;13.13;;
12459;SDS011;6295;49.452;8.466;2022-07-23T13:14:05;14.03;;;12.83;;
12459;SDS011;6295;49.452;8.466;2022-07-23T13:18:07;14.73;;;13.33;;
12459;SDS011;6295;49.452;8.466;2022-07-23T13:22:11;14.23;;;13.00;;
12459;SDS011;6295;49.452;8.466;2022-07-23T13:26:14;14.07;;;12.87;;
12459;SDS011;6295;49.452;8.466;2022-07-23T13:30:16;15.00;;;13.70;;
12459;SDS011;6295;49.452;8.466;2022-07-23T13:34:18;14.90;;;13.50;;
12459;SDS011;6295;49.452;8.466;2022-07-23T13:38:22;13.17;;;12.00;;
12459;SDS011;6295;49.452;8.466;2022-07-23T13:42:25;13.90;;;12.67;;
12459;SDS011;6295;49.452;8.466;2022-07-23T13:46:27;13.20;;;12.03;;
12459;SDS011;6295;49.452;8.466;2022-07-23T13:50:30;12.23;;;11.23;;
12459;SDS011;6295;49.452;8.466;2022-07-23T13:54:33;12.90;;;11.83;;
12459;SDS011;6295;49.452;8.466;2022-07-23T13:58:36;12.20;;;11.10;;
12459;SDS011;6295;49.452;8.466;2022-07-23T14:02:40;13.40;;;12.17;;
12459;SDS011;6295;49.452;8.466;2022-07-23T14:06:43;12.63;;;11.57;;
12459;SDS011;6295;49.452;8.466;2022-07-23T14:10:46;12.40;;;11.37;;
12459;SDS011;6295;49.452;8.466;2022-07-23T14:14:48;12.23;;;11.23;;
12459;SDS011;6295;49.452;8.466;2022-07-23T14:18:51;13.17;;;11.90;;
12459;SDS011;6295;49.452;8.466;2022-07-23T14:22:53;13.00;;;11.80;;
12459;SDS011;6295;49.452;8.466;2022-07-23T14:26:58;14.17;;;12.87;;
12459;SDS011;6295;49.452;8.466;2022-07-23T14:31:02;12.80;;;11.80;;
12459;SDS011;6295;49.452;8.466;2022-07-23T14:35:05;13.03;;;11.83;;
12459;SDS011;6295;49.452;8.466;2022-07-23T14:39:07;12.20;;;11.20;;
12459;SDS011;6295;49.452;8.466;2022-07-23T14:43:13;12.37;;;11.17;;
12459;SDS011;6295;49.452;8.466;2022-07-23T14:47:16;12.10;;;11.00;;
12459;SDS011;6295;49.452;8.466;2022-07-23T14:51:20;12.03;;;10.93;;
12459;SDS011;6295;49.452;8.466;2022-07-23T14:55:22;12.10;;;11.03;;
12459;SDS011;6295;49.452;8.466;2022-07-23T14:59:26;11.87;;;10.77;;
12459;SDS011;6295;49.452;8.466;2022-07-23T15:03:28;12.90;;;11.60;;
12459;SDS011;6295;49.452;8.466;2022-07-23T15:07:31;12.80;;;11.70;;
12459;SDS011;6295;49.452;8.466;2022-07-23T15:11:33;11.87;;;10.87;;
12459;SDS011;6295;49.452;8.466;2022-07-23T15:15:38;11.50;;;10.53;;
12459;SDS011;6295;49.452;8.466;2022-07-23T15:19:40;11.00;;;10.10;;
12459;SDS011;6295;49.452;8.466;2022-07-23T15:23:43;11.20;;;10.20;;
12459;SDS011;6295;49.452;8.466;2022-07-23T15:27:46;11.67;;;10.67;;
12459;SDS011;6295;49.452;8.466;2022-07-23T15:31:50;11.43;;;10.37;;
12459;SDS011;6295;49.452;8.466;2022-07-23T15:35:53;11.53;;;10.63;;
12459;SDS011;6295;49.452;8.466;2022-07-23T15:39:58;11.20;;;10.40;;
12459;SDS011;6295;49.452;8.466;2022-07-23T15:44:00;10.47;;;9.53;;
12459;SDS011;6295;49.452;8.466;2022-07-23T15:48:04;10.93;;;10.03;;
12459;SDS011;6295;49.452;8.466;2022-07-23T15:52:07;10.80;;;9.80;;
12459;SDS011;6295;49.452;8.466;2022-07-23T15:56:09;11.53;;;10.43;;
12459;SDS011;6295;49.452;8.466;2022-07-23T16:00:12;11.73;;;10.63;;
12459;SDS011;6295;49.452;8.466;2022-07-23T16:04:17;12.43;;;11.23;;
12459;SDS011;6295;49.452;8.466;2022-07-23T16:08:19;11.63;;;10.63;;
12459;SDS011;6295;49.452;8.466;2022-07-23T16:12:21;11.40;;;10.43;;
12459;SDS011;6295;49.452;8.466;2022-07-23T16:16:24;11.50;;;10.40;;
12459;SDS011;6295;49.452;8.466;2022-07-23T16:20:28;11.17;;;10.07;;
12459;SDS011;6295;49.452;8.466;2022-07-23T16:24:30;11.03;;;10.13;;
12459;SDS011;6295;49.452;8.466;2022-07-23T16:28:33;11.43;;;10.47;;
12459;SDS011;6295;49.452;8.466;2022-07-23T16:32:38;11.67;;;10.67;;
12459;SDS011;6295;49.452;8.466;2022-07-23T16:36:44;10.33;;;9.53;;
12459;SDS011;6295;49.452;8.466;2022-07-23T16:40:46;11.97;;;10.97;;
12459;SDS011;6295;49.452;8.466;2022-07-23T16:44:48;10.37;;;9.47;;
12459;SDS011;6295;49.452;8.466;2022-07-23T16:48:51;10.53;;;9.63;;
12459;SDS011;6295;49.452;8.466;2022-07-23T16:52:54;11.00;;;10.00;;
12459;SDS011;6295;49.452;8.466;2022-07-23T16:56:56;10.87;;;9.87;;
12459;SDS011;6295;49.452;8.466;2022-07-23T17:00:59;12.13;;;11.00;;
12459;SDS011;6295;49.452;8.466;2022-07-23T17:05:01;12.43;;;11.23;;
12459;SDS011;6295;49.452;8.466;2022-07-23T17:09:05;11.97;;;10.87;;
12459;SDS011;6295;49.452;8.466;2022-07-23T17:13:07;10.63;;;9.83;;
12459;SDS011;6295;49.452;8.466;2022-07-23T17:17:09;10.57;;;9.77;;
12459;SDS011;6295;49.452;8.466;2022-07-23T17:21:12;11.00;;;10.00;;
12459;SDS011;6295;49.452;8.466;2022-07-23T17:25:15;12.43;;;11.33;;
12459;SDS011;6295;49.452;8.466;2022-07-23T17:29:19;11.20;;;10.10;;
12459;SDS011;6295;49.452;8.466;2022-07-23T17:33:21;11.57;;;10.57;;
12459;SDS011;6295;49.452;8.466;2022-07-23T17:37:24;11.70;;;10.70;;
12459;SDS011;6295;49.452;8.466;2022-07-23T17:41:27;11.40;;;10.50;;
12459;SDS011;6295;49.452;8.466;2022-07-23T17:45:29;11.10;;;10.10;;
12459;SDS011;6295;49.452;8.466;2022-07-23T17:49:33;11.77;;;10.60;;
12459;SDS011;6295;49.452;8.466;2022-07-23T17:53:36;10.50;;;9.70;;
12459;SDS011;6295;49.452;8.466;2022-07-23T17:57:42;10.47;;;9.57;;
12459;SDS011;6295;49.452;8.466;2022-07-23T18:01:44;10.47;;;9.60;;
12459;SDS011;6295;49.452;8.466;2022-07-23T18:05:47;11.20;;;10.23;;
12459;SDS011;6295;49.452;8.466;2022-07-23T18:09:49;10.33;;;9.53;;
12459;SDS011;6295;49.452;8.466;2022-07-23T18:13:54;11.20;;;10.30;;
12459;SDS011;6295;49.452;8.466;2022-07-23T18:17:57;11.07;;;10.17;;
12459;SDS011;6295;49.452;8.466;2022-07-23T18:21:59;11.03;;;10.13;;
12459;SDS011;6295;49.452;8.466;2022-07-23T18:26:01;10.77;;;9.87;;
12459;SDS011;6295;49.452;8.466;2022-07-23T18:30:06;11.10;;;10.20;;
12459;SDS011;6295;49.452;8.466;2022-07-23T18:34:09;10.83;;;9.93;;
12459;SDS011;6295;49.452;8.466;2022-07-23T18:38:11;10.70;;;9.77;;
12459;SDS011;6295;49.452;8.466;2022-07-23T18:42:14;11.27;;;10.27;;
12459;SDS011;6295;49.452;8.466;2022-07-23T18:46:19;11.30;;;10.30;;
12459;SDS011;6295;49.452;8.466;2022-07-23T18:50:21;11.17;;;10.03;;
12459;SDS011;6295;49.452;8.466;2022-07-23T18:54:25;9.93;;;9.03;;
12459;SDS011;6295;49.452;8.466;2022-07-23T18:58:29;10.27;;;9.47;;
12459;SDS011;6295;49.452;8.466;2022-07-23T19:02:32;10.90;;;9.80;;
12459;SDS011;6295;49.452;8.466;2022-07-23T19:06:34;10.23;;;9.37;;
12459;SDS011;6295;49.452;8.466;2022-07-23T19:10:37;10.97;;;10.00;;
12459;SDS011;6295;49.452;8.466;2022-07-23T19:14:40;11.03;;;10.03;;
12459;SDS011;6295;49.452;8.466;2022-07-23T19:18:43;11.00;;;10.00;;
12459;SDS011;6295;49.452;8.466;2022-07-23T19:22:46;10.73;;;9.83;;
12459;SDS011;6295;49.452;8.466;2022-07-23T19:26:48;11.80;;;10.80;;
12459;SDS011;6295;49.452;8.466;2022-07-23T19:30:51;11.10;;;10.20;;
12459;SDS011;6295;49.452;8.466;2022-07-23T19:34:54;11.57;;;10.57;;
12459;SDS011;6295;49.452;8.466;2022-07-23T19:38:57;12.20;;;11.10;;
12459;SDS011;6295;49.452;8.466;2022-07-23T19:42:59;11.43;;;10.43;;
12459;SDS011;6295;49.452;8.466;2022-07-23T19:47:02;12.00;;;10.90;;
12459;SDS011;6295;49.452;8.466;2022-07-23T19:51:06;10.70;;;9.70;;
12459;SDS011;6295;49.452;8.466;2022-07-23T19:55:09;10.67;;;9.77;;
12459;SDS011;6295;49.452;8.466;2022-07-23T19:59:12;10.37;;;9.57;;
12459;SDS011;6295;49.452;8.466;2022-07-23T20:03:14;10.93;;;9.90;;
12459;SDS011;6295;49.452;8.466;2022-07-23T20:07:19;13.77;;;9.70;;
12459;SDS011;6295;49.452;8.466;2022-07-23T20:11:22;9.60;;;8.70;;
12459;SDS011;6295;49.452;8.466;2022-07-23T20:15:24;8.80;;;7.87;;
12459;SDS011;6295;49.452;8.466;2022-07-23T20:19:28;9.13;;;7.80;;
12459;SDS011;6295;49.452;8.466;2022-07-23T20:23:32;7.87;;;7.17;;
12459;SDS011;6295;49.452;8.466;2022-07-23T20:27:35;8.27;;;7.33;;
12459;SDS011;6295;49.452;8.466;2022-07-23T20:31:37;7.87;;;6.87;;
12459;SDS011;6295;49.452;8.466;2022-07-23T20:35:40;6.80;;;6.20;;
12459;SDS011;6295;49.452;8.466;2022-07-23T20:39:45;7.07;;;6.40;;
12459;SDS011;6295;49.452;8.466;2022-07-23T20:43:47;6.73;;;6.13;;
12459;SDS011;6295;49.452;8.466;2022-07-23T20:47:49;7.33;;;6.63;;
12459;SDS011;6295;49.452;8.466;2022-07-23T20:51:52;7.13;;;6.53;;
12459;SDS011;6295;49.452;8.466;2022-07-23T20:55:56;7.20;;;6.60;;
12459;SDS011;6295;49.452;8.466;2022-07-23T20:59:59;7.10;;;6.50;;
12459;SDS011;6295;49.452;8.466;2022-07-23T21:04:01;7.23;;;6.63;;
12459;SDS011;6295;49.452;8.466;2022-07-23T21:08:05;7.40;;;6.70;;
12459;SDS011;6295;49.452;8.466;2022-07-23T21:12:10;7.50;;;6.83;;
12459;SDS011;6295;49.452;8.466;2022-07-23T21:16:12;7.33;;;6.73;;
12459;SDS011;6295;49.452;8.466;2022-07-23T21:20:15;7.47;;;6.77;;
12459;SDS011;6295;49.452;8.466;2022-07-23T21:24:18;7.60;;;7.00;;
12459;SDS011;6295;49.452;8.466;2022-07-23T21:28:21;8.43;;;7.63;;
12459;SDS011;6295;49.452;8.466;2022-07-23T21:32:24;7.63;;;7.03;;
12459;SDS011;6295;49.452;8.466;2022-07-23T21:36:27;7.90;;;7.20;;
12459;SDS011;6295;49.452;8.466;2022-07-23T21:40:30;8.40;;;7.60;;
12459;SDS011;6295;49.452;8.466;2022-07-23T21:44:35;7.93;;;7.33;;
12459;SDS011;6295;49.452;8.466;2022-07-23T21:48:37;9.10;;;7.50;;
12459;SDS011;6295;49.452;8.466;2022-07-23T21:52:42;7.97;;;7.30;;
12459;SDS011;6295;49.452;8.466;2022-07-23T21:56:45;8.17;;;7.47;;
12459;SDS011;6295;49.452;8.466;2022-07-23T22:00:50;8.10;;;7.40;;
12459;SDS011;6295;49.452;8.466;2022-07-23T22:04:54;8.63;;;7.93;;
12459;SDS011;6295;49.452;8.466;2022-07-23T22:08:56;8.10;;;7.33;;
12459;SDS011;6295;49.452;8.466;2022-07-23T22:12:59;8.20;;;7.50;;
12459;SDS011;6295;49.452;8.466;2022-07-23T22:17:03;8.53;;;7.83;;
12459;SDS011;6295;49.452;8.466;2022-07-23T22:21:06;8.63;;;7.77;;
12459;SDS011;6295;49.452;8.466;2022-07-23T22:25:08;8.70;;;7.90;;
12459;SDS011;6295;49.452;8.466;2022-07-23T22:29:11;8.97;;;8.17;;
12459;SDS011;6295;49.452;8.466;2022-07-23T22:33:15;9.10;;;8.30;;
12459;SDS011;6295;49.452;8.466;2022-07-23T22:37:18;9.30;;;8.30;;
12459;SDS011;6295;49.452;8.466;2022-07-23T22:41:20;9.80;;;8.77;;
12459;SDS011;6295;49.452;8.466;2022-07-23T22:45:22;9.37;;;8.57;;
12459;SDS011;6295;49.452;8.466;2022-07-23T22:49:26;9.43;;;8.63;;
12459;SDS011;6295;49.452;8.466;2022-07-23T22:53:28;8.93;;;8.13;;
12459;SDS011;6295;49.452;8.466;2022-07-23T23:13:38;8.83;;;7.90;;
12459;SDS011;6295;49.452;8.466;2022-07-23T23:17:41;9.10;;;8.20;;
12459;SDS011;6295;49.452;8.466;2022-07-23T23:21:43;8.53;;;7.83;;
12459;SDS011;6295;49.452;8.466;2022-07-23T23:25:45;8.50;;;7.70;;
12459;SDS011;6295;49.452;8.466;2022-07-23T23:29:48;8.40;;;7.70;;
12459;SDS011;6295;49.452;8.466;2022-07-23T23:33:50;8.60;;;7.80;;
12459;SDS011;6295;49.452;8.466;2022-07-23T23:37:52;9.63;;;8.00;;
12459;SDS011;6295;49.452;8.466;2022-07-23T23:41:54;8.73;;;7.93;;
12459;SDS011;6295;49.452;8.466;2022-07-23T23:45:58;8.70;;;8.00;;
12459;SDS011;6295;49.452;8.466;2022-07-23T23:50:01;8.50;;;7.80;;
12459;SDS011;6295;49.452;8.466;2022-07-23T23:54:04;8.57;;;7.87;;
12459;SDS011;6295;49.452;8.466;2022-07-23T23:58:06;9.10;;;8.20;;
